Latest Weather Observations for Esperance

IDW60801

Issued at 5:05 am WST Saturday 1 November 2014 (issued every 30 minutes, with the page automatically refreshed every 10 minutes)

About weather observations | Map of weather stations | Latest weather observations for WA | Other Formats
Station Details ID: 009789 Name: ESPERANCE Lat: -33.83 Lon: 121.89 Height: 25.0 m
Data from the previous 72 hours. | See also: Recent months at Esperance
Date/Time
WST
Temp
°C
App
Temp
°C
Dew
Point
Rel
Hum
%
Delta-T
°C
Wind Press
QNH
hPa
Press
MSL
hPa
Rain
since 9 am
mm
Dir
 
Spd
km/h
Gust
km/h
Spd
kts
Gust
kts
01/05:00am 11.8 11.5 8.8 82 1.5 N 0 0 0 0 1022.2 1022.1 0.4
01/04:30am 11.6 11.2 8.3 80 1.6 NE 0 4 0 2 1021.8 1021.7 0.4
01/04:00am 11.5 9.7 8.0 79 1.7 NNE 7 11 4 6 1021.4 1021.3 0.4
01/03:30am 11.0 8.8 7.7 80 1.6 N 9 11 5 6 1021.4 1021.3 0.4
01/03:00am 11.7 10.1 7.8 77 1.9 NNW 6 7 3 4 1021.2 1021.1 0.4
01/02:30am 11.6 10.0 8.1 79 1.7 N 6 7 3 4 1021.2 1021.1 0.4
01/02:00am 12.7 11.3 7.1 69 2.7 SE 4 9 2 5 1021.1 1021.0 0.4
01/01:30am 13.5 11.4 5.9 60 3.6 SW 6 9 3 5 1021.2 1021.1 0.4
01/01:00am 13.8 10.5 4.4 53 4.3 S 11 15 6 8 1021.2 1021.1 0.4
01/12:30am 13.8 10.6 5.0 55 4.1 S 11 17 6 9 1021.0 1020.9 0.4
01/12:00am 14.4 10.8 5.2 54 4.3 S 13 19 7 10 1021.1 1021.0 0.4
 
Date/Time
WST
Temp
°C
App
Temp
°C
Dew
Point
Rel
Hum
%
Delta-T
°C
Wind Press
QNH
hPa
Press
MSL
hPa
Rain
since 9 am
mm
Dir
 
Spd
km/h
Gust
km/h
Spd
kts
Gust
kts
31/11:30pm 14.5 11.5 5.9 56 4.1 S 11 19 6 10 1021.3 1021.2 0.4
31/11:00pm 14.4 11.6 5.0 53 4.4 S 9 13 5 7 1021.4 1021.3 0.4
31/10:30pm 14.6 11.3 4.7 51 4.6 SSE 11 15 6 8 1021.5 1021.4 0.4
31/10:00pm 14.4 9.9 4.4 51 4.6 S 17 22 9 12 1021.5 1021.4 0.4
31/09:30pm 14.9 10.3 5.6 53 4.4 SSE 19 26 10 14 1021.5 1021.4 0.4
31/09:00pm 14.3 12.1 6.1 58 3.9 SW 7 11 4 6 1021.7 1021.6 0.4
31/08:30pm 14.1 11.3 5.1 54 4.2 S 9 15 5 8 1021.6 1021.5 0.4
31/08:00pm 14.6 10.4 5.5 54 4.3 S 17 28 9 15 1021.3 1021.2 0.4
31/07:30pm 14.8 10.8 6.8 58 3.9 S 17 24 9 13 1020.9 1020.8 0.4
31/07:00pm 14.5 11.4 5.6 55 4.2 S 11 17 6 9 1020.7 1020.6 0.4
31/06:30pm 14.5 10.9 4.8 52 4.5 S 13 19 7 10 1020.6 1020.5 0.4
31/06:00pm 14.8 10.8 4.7 51 4.7 SSW 15 26 8 14 1020.1 1020.0 0.4
31/05:30pm 15.6 11.1 4.4 47 5.2 SSW 17 26 9 14 1019.6 1019.5 0.4
31/05:00pm 16.0 11.1 5.0 48 5.2 S 20 28 11 15 1019.0 1018.9 0.4
31/04:30pm 16.0 11.4 6.3 52 4.7 S 20 32 11 17 1018.5 1018.4 0.4
31/04:00pm 15.9 10.9 4.6 47 5.3 S 20 32 11 17 1018.3 1018.2 0.4
31/03:30pm 17.2 12.5 5.3 45 5.7 S 19 32 10 17 1018.0 1017.9 0.4
31/03:00pm 16.8 10.6 6.1 49 5.2 S 28 37 15 20 1017.5 1017.4 0.4
31/02:30pm 17.3 11.7 7.1 51 5.1 S 26 37 14 20 1017.3 1017.2 0.4
31/02:00pm 17.6 11.8 4.5 42 6.2 S 24 37 13 20 1017.2 1017.1 0.4
31/01:30pm 17.0 11.0 5.3 46 5.6 S 26 43 14 23 1017.0 1016.9 0.4
31/01:00pm 17.3 11.5 6.3 48 5.4 S 26 37 14 20 1016.9 1016.8 0.4
31/12:30pm 17.1 10.6 6.3 49 5.3 S 30 43 16 23 1016.8 1016.7 0.4
31/12:00pm 18.4 12.5 7.6 49 5.5 S 28 37 15 20 1016.5 1016.4 0.4
31/11:30am 17.8 12.1 8.2 53 4.9 S 28 41 15 22 1016.3 1016.2 0.4
31/11:00am 17.2 11.0 7.9 54 4.7 S 30 44 16 24 1016.0 1015.9 0.4
31/10:30am 17.9 11.9 8.6 54 4.8 S 30 43 16 23 1015.9 1015.8 0.4
31/10:00am 17.3 11.0 7.3 52 5.0 S 30 44 16 24 1015.5 1015.4 0.4
31/09:50am 17.3 11.7 8.8 57 4.4 SSW 28 46 15 25 1015.5 1015.4 0.2
31/09:30am 16.9 10.6 7.5 54 4.7 SSW 30 41 16 22 1015.2 1015.2 0.2
31/09:00am 17.1 10.6 8.3 56 4.5 S 32 50 17 27 1014.7 1014.7 2.6
31/08:37am 16.4 10.4 8.8 60 3.9 SSW 30 48 16 26 1014.2 1014.2 2.6
31/08:30am 17.1 11.9 9.0 59 4.2 SSW 26 37 14 20 1014.2 1014.2 2.6
31/08:00am 16.7 11.4 9.8 63 3.6 SSW 28 44 15 24 1013.8 1013.8 2.6
31/07:30am 15.8 10.5 9.7 67 3.2 SSW 28 50 15 27 1013.3 1013.3 2.6
31/07:28am 15.7 10.5 10.2 70 2.9 SSW 28 50 15 27 1013.4 1013.4 2.6
31/07:00am 15.3 12.1 11.2 76 2.2 SW 19 35 10 19 1013.0 1013.0 2.6
31/06:30am 14.5 12.4 12.5 88 1.1 SW 15 26 8 14 1012.5 1012.5 2.6
31/06:00am 14.0 9.6 12.9 93 0.6 SSW 28 46 15 25 1012.2 1012.2 2.6
31/05:57am 13.9 9.5 13.0 94 0.5 SSW 28 46 15 25 1012.2 1012.2 2.6
31/05:52am 14.1 9.9 13.4 96 0.4 SSW 28 44 15 24 1012.0 1012.0 2.6
31/05:41am 14.3 11.3 13.6 96 0.4 SW 22 35 12 19 1012.0 1012.0 2.2
31/05:30am 15.0 12.4 13.2 89 1.0 WSW 19 26 10 14 1012.0 1012.0 1.0
31/05:00am 15.6 12.8 12.5 82 1.7 WNW 19 28 10 15 1011.1 1011.1 0.0
31/04:30am 15.7 12.8 12.4 81 1.8 NW 19 22 10 12 1010.5 1010.5 0.0
31/04:00am 15.9 13.4 12.4 80 1.9 NW 17 22 9 12 1010.3 1010.3 0.0
31/03:30am 16.0 14.3 12.6 80 1.9 NW 13 17 7 9 1010.0 1010.0 0.0
31/03:00am 16.3 15.1 12.7 79 2.0 NW 11 17 6 9 1009.9 1009.9 0.0
31/02:30am 16.3 15.1 12.7 79 2.0 NW 11 15 6 8 1009.9 1009.9 0.0
31/02:00am 16.4 15.2 12.8 79 2.0 NW 11 15 6 8 1009.9 1009.9 0.0
31/01:30am 16.5 15.7 12.9 79 2.0 WNW 9 13 5 7 1009.9 1009.9 0.0
31/01:00am 16.6 16.1 12.6 77 2.2 W 7 9 4 5 1010.0 1010.0 0.0
31/12:30am 16.5 15.6 12.7 78 2.1 W 9 9 5 5 1010.2 1010.2 0.0
31/12:00am 16.5 16.1 12.5 77 2.2 W 6 7 3 4 1010.5 1010.5 0.0
 
Date/Time
WST
Temp
°C
App
Temp
°C
Dew
Point
Rel
Hum
%
Delta-T
°C
Wind Press
QNH
hPa
Press
MSL
hPa
Rain
since 9 am
mm
Dir
 
Spd
km/h
Gust
km/h
Spd
kts
Gust
kts
30/11:30pm 16.7 16.1 12.2 75 2.5 SW 7 11 4 6 1010.8 1010.8 0.0
30/11:00pm 16.7 15.1 11.5 71 2.8 SSW 11 15 6 8 1010.8 1010.8 0.0
30/10:30pm 16.6 15.7 11.4 71 2.8 SW 7 11 4 6 1010.8 1010.8 0.0
30/10:00pm 16.6 15.2 11.0 69 3.0 SSW 9 17 5 9 1010.6 1010.6 0.0
30/09:30pm 16.3 14.1 10.9 70 2.9 S 13 19 7 10 1010.5 1010.5 0.0
30/09:00pm 16.1 14.0 11.3 73 2.6 S 13 19 7 10 1010.4 1010.4 0.0
30/08:30pm 16.0 14.4 11.6 75 2.4 SSE 11 13 6 7 1010.2 1010.2 0.0
30/08:00pm 16.2 14.6 11.4 73 2.6 SSE 11 17 6 9 1010.1 1010.1 0.0
30/07:30pm 16.5 14.4 11.3 71 2.8 SSE 13 17 7 9 1009.8 1009.8 0.0
30/07:00pm 16.6 14.2 11.4 71 2.8 SE 15 19 8 10 1009.5 1009.5 0.0
30/06:30pm 16.4 14.1 11.8 74 2.5 ESE 15 19 8 10 1009.2 1009.2 0.0
30/06:00pm 16.6 14.3 11.8 73 2.6 SE 15 20 8 11 1009.1 1009.1 0.0
30/05:30pm 17.1 14.0 11.6 70 3.0 SE 19 26 10 14 1008.8 1008.8 0.0
30/05:00pm 17.5 14.1 11.4 67 3.3 SSE 20 28 11 15 1008.9 1008.9 0.0
30/04:30pm 17.3 13.2 11.6 69 3.1 SSE 24 30 13 16 1008.9 1008.9 0.0
30/04:00pm 17.7 13.6 11.5 67 3.4 SSE 24 30 13 16 1009.1 1009.1 0.0
30/03:30pm 18.4 15.1 11.7 65 3.7 S 20 28 11 15 1009.3 1009.3 0.0
30/03:00pm 18.2 14.9 11.6 65 3.6 SSE 20 26 11 14 1009.5 1009.5 0.0
30/02:30pm 18.2 15.2 12.1 67 3.4 SSE 19 24 10 13 1009.8 1009.8 0.0
30/02:00pm 18.0 14.8 12.0 68 3.3 SSE 20 30 11 16 1010.1 1010.1 0.0
30/01:30pm 18.2 15.1 12.3 68 3.3 SE 20 30 11 16 1010.1 1010.1 0.0
30/01:00pm 18.1 14.7 12.5 70 3.1 SE 22 32 12 17 1010.5 1010.5 0.0
30/12:30pm 18.3 15.4 12.8 70 3.1 SE 20 26 11 14 1010.8 1010.8 0.0
30/12:00pm 18.7 15.9 12.6 67 3.4 SSE 19 26 10 14 1011.1 1011.1 0.0
30/11:30am 18.9 16.9 12.7 67 3.5 SSE 15 28 8 15 1011.3 1011.3 0.0
30/11:00am 19.8 18.2 12.7 63 4.0 S 13 20 7 11 1011.7 1011.7 0.0
30/10:30am 19.8 16.9 12.9 64 3.9 S 20 28 11 15 1011.9 1011.9 0.0
30/10:00am 18.8 16.4 12.5 67 3.5 S 17 22 9 12 1012.6 1012.6 0.0
30/09:30am 18.4 16.1 12.9 70 3.1 S 17 22 9 12 1012.8 1012.8 0.0
30/09:00am 18.2 16.3 12.9 71 3.0 S 15 22 8 12 1012.9 1012.9 0.0
30/08:30am 18.3 16.7 12.8 70 3.1 S 13 17 7 9 1012.4 1012.4 0.0
30/08:00am 18.2 17.5 13.2 72 2.8 SSW 9 15 5 8 1012.7 1012.7 0.0
30/07:30am 17.5 17.4 13.4 77 2.3 SSW 6 7 3 4 1013.2 1013.2 0.0
30/07:00am 16.9 16.7 13.5 80 1.9 S 7 9 4 5 1013.5 1013.5 0.0
30/06:30am 16.6 16.5 13.8 83 1.6 W 7 9 4 5 1013.9 1013.9 0.0
30/06:00am 16.8 16.2 13.6 81 1.8 SW 9 13 5 7 1013.2 1013.2 0.0
30/05:30am 16.7 16.0 13.3 80 1.9 SW 9 15 5 8 1013.0 1013.0 0.0
30/05:00am 16.8 15.3 13.0 78 2.1 S 13 19 7 10 1012.6 1012.6 0.0
30/04:30am 16.9 15.5 13.3 79 2.0 S 13 19 7 10 1012.6 1012.6 0.0
30/04:00am 17.0 15.6 13.5 80 2.0 S 13 17 7 9 1012.1 1012.1 0.0
30/03:30am 16.9 16.1 13.9 82 1.7 S 11 15 6 8 1012.4 1012.4 0.0
30/03:00am 17.0 16.6 14.0 82 1.7 S 9 15 5 8 1012.6 1012.6 0.0
30/02:30am 17.0 15.9 14.2 83 1.6 S 13 19 7 10 1012.4 1012.4 0.0
30/02:00am 17.0 15.9 14.2 83 1.6 S 13 20 7 11 1012.4 1012.4 0.0
30/01:30am 17.2 15.8 14.6 85 1.5 S 15 22 8 12 1012.5 1012.5 0.0
30/01:00am 17.3 15.7 14.9 86 1.4 S 17 20 9 11 1012.5 1012.5 0.0
30/12:30am 17.3 16.1 15.1 87 1.3 S 15 22 8 12 1012.5 1012.5 0.0
30/12:01am 17.3 15.8 15.2 87 1.2 S 17 24 9 13 1012.6 1012.6 0.0
30/12:00am 17.3 15.8 15.2 87 1.2 S 17 24 9 13 1012.6 1012.6 0.0
 
Date/Time
WST
Temp
°C
App
Temp
°C
Dew
Point
Rel
Hum
%
Delta-T
°C
Wind Press
QNH
hPa
Press
MSL
hPa
Rain
since 9 am
mm
Dir
 
Spd
km/h
Gust
km/h
Spd
kts
Gust
kts
29/11:51pm 17.3 16.2 15.2 87 1.2 S 15 20 8 11 1012.8 1012.8 0.0
29/11:49pm 17.3 16.2 15.2 87 1.2 SSE 15 22 8 12 1012.9 1012.9 0.0
29/11:30pm 17.4 15.9 15.3 87 1.2 SSE 17 22 9 12 1012.9 1012.9 0.0
29/11:24pm 17.4 16.6 15.2 87 1.3 SSE 13 22 7 12 1013.0 1013.0 0.0
29/11:00pm 17.5 16.0 15.3 87 1.3 S 17 20 9 11 1013.1 1013.1 0.0
29/10:30pm 17.6 15.8 15.4 87 1.3 SE 19 24 10 13 1013.2 1013.2 0.0
29/10:00pm 17.6 16.6 15.6 88 1.2 SSE 15 20 8 11 1013.8 1013.8 0.0
29/09:38pm 17.6 15.8 15.6 88 1.2 SSE 19 24 10 13 1013.4 1013.4 0.0
29/09:30pm 17.6 16.2 15.6 88 1.2 SSE 17 22 9 12 1013.7 1013.7 0.0
29/09:24pm 17.6 17.0 15.7 89 1.1 SSE 13 19 7 10 1013.7 1013.7 0.0
29/09:21pm 17.6 17.0 15.7 89 1.1 SSE 13 17 7 9 1013.8 1013.8 0.0
29/09:00pm 17.3 16.4 15.8 91 0.9 SSE 15 20 8 11 1013.7 1013.7 0.0
29/08:56pm 17.4 16.4 15.7 90 1.0 SSE 15 20 8 11 1013.8 1013.8 0.0
29/08:42pm 17.5 16.5 15.6 89 1.1 SSE 15 19 8 10 1013.9 1013.9 0.0
29/08:30pm 17.6 16.3 15.7 89 1.1 SE 17 20 9 11 1013.8 1013.8 0.0
29/08:00pm 17.7 16.4 15.7 88 1.2 SSE 17 22 9 12 1013.8 1013.8 0.0
29/07:45pm 17.7 16.0 15.7 88 1.2 SSE 19 24 10 13 1013.9 1013.9 0.0
29/07:30pm 17.5 15.7 16.0 91 0.9 SSE 20 28 11 15 1013.6 1013.6 0.0
29/07:00pm 17.8 15.9 15.8 88 1.2 SSE 20 28 11 15 1013.7 1013.7 0.0
29/06:30pm 18.0 16.2 15.6 86 1.4 SSE 19 26 10 14 1013.7 1013.7 0.0
29/06:00pm 17.9 15.5 15.3 85 1.5 SSE 22 32 12 17 1013.3 1013.3 0.0
29/05:51pm 18.0 15.6 15.3 84 1.6 SSE 22 28 12 15 1013.3 1013.3 0.0
29/05:30pm 18.0 15.7 15.8 87 1.3 SSE 22 28 12 15 1013.2 1013.2 0.0
29/05:05pm 18.2 15.9 15.7 85 1.5 SSE 22 28 12 15 1013.1 1013.1 0.0
29/05:00pm 18.1 15.4 15.7 86 1.4 SSE 24 30 13 16 1012.9 1012.9 0.0
29/04:30pm 18.6 15.6 15.9 84 1.6 SSE 26 33 14 18 1012.5 1012.5 0.0
29/04:00pm 18.8 15.8 15.9 83 1.7 SSE 26 33 14 18 1012.5 1012.5 0.0
29/03:30pm 19.2 17.1 16.2 83 1.8 SSE 22 30 12 16 1012.6 1012.6 0.0
29/03:09pm 19.8 17.7 16.3 80 2.1 SSE 22 33 12 18 1012.6 1012.6 0.0
29/03:00pm 19.3 17.2 16.1 82 1.9 SSE 22 32 12 17 1012.4 1012.4 0.0
29/02:30pm 20.4 18.4 15.5 73 2.9 S 20 30 11 16 1012.6 1012.6 0.0
29/02:00pm 20.2 18.8 15.5 74 2.8 S 17 22 9 12 1012.8 1012.8 0.0
29/01:30pm 21.6 20.4 14.0 62 4.4 S 13 19 7 10 1012.5 1012.5 0.0
29/01:00pm 21.1 20.8 14.4 65 3.9 SSE 9 13 5 7 1012.8 1012.8 0.0
29/12:30pm 21.2 19.3 13.0 59 4.7 SSE 15 19 8 10 1012.5 1012.5 0.0
29/12:00pm 20.9 17.7 13.0 60 4.5 SSE 22 28 12 15 1012.4 1012.4 0.0
29/11:30am 22.2 19.6 13.2 56 5.2 SSE 19 26 10 14 1012.7 1012.7 0.0
29/11:00am 22.4 19.7 12.8 54 5.5 SSE 19 24 10 13 1013.0 1013.0 0.0
29/10:30am 23.7 22.0 12.5 49 6.4 SSE 13 19 7 10 1013.2 1013.2 0.0
29/10:00am 22.9 21.4 13.0 53 5.7 SE 13 15 7 8 1013.5 1013.5 0.0
29/09:30am 21.6 20.1 13.0 58 4.9 SE 13 15 7 8 1013.9 1013.9 0.0
29/09:00am 21.1 20.3 12.8 59 4.7 ESE 9 15 5 8 1014.2 1014.2 0.0
29/08:30am 19.8 18.4 13.5 67 3.6 ESE 13 17 7 9 1014.1 1014.1 0.0
29/08:00am 19.8 18.7 13.1 65 3.8 ESE 11 13 6 7 1014.2 1014.2 0.0
29/07:30am 18.3 17.6 13.2 72 2.9 ENE 9 13 5 7 1014.6 1014.6 0.0
29/07:00am 17.7 17.1 13.6 77 2.3 E 9 13 5 7 1014.3 1014.3 0.0
29/06:30am 16.8 15.9 13.6 81 1.8 E 11 13 6 7 1014.5 1014.5 0.0
29/06:00am 16.7 16.5 13.5 81 1.8 E 7 11 4 6 1014.5 1014.5 0.0
29/05:30am 16.0 15.3 13.3 84 1.5 ESE 9 13 5 7 1014.5 1014.5 0.0

Other Formats:

Comma delimited format used in spreadsheet applications
http://www.bom.gov.au/fwo/IDW60801/IDW60801.94638.axf

JavaScript Object Notation format (JSON) in row-major order
http://www.bom.gov.au/fwo/IDW60801/IDW60801.94638.json